createdAt,value
2022-08-31T00:00:15.363Z,67.20
2022-08-31T00:03:00.484Z,66.68
2022-08-31T00:05:28.261Z,66.70
2022-08-31T00:07:55.587Z,68.44
2022-08-31T00:10:31.809Z,68.26
2022-08-31T00:13:00.363Z,68.47
2022-08-31T00:15:29.997Z,68.64
2022-08-31T00:17:56.481Z,69.51
2022-08-31T00:20:33.588Z,69.57
2022-08-31T00:23:05.680Z,69.23
2022-08-31T00:25:33.839Z,69.45
2022-08-31T00:28:00.478Z,68.81
2022-08-31T00:30:27.305Z,69.04
2022-08-31T00:32:53.916Z,68.87
2022-08-31T00:35:24.264Z,69.42
2022-08-31T00:37:50.803Z,68.86
2022-08-31T00:40:17.754Z,69.03
2022-08-31T00:42:44.362Z,69.39
2022-08-31T00:45:11.247Z,69.15
2022-08-31T00:47:38.104Z,71.80
2022-08-31T00:50:07.890Z,71.36
2022-08-31T00:52:40.035Z,71.10
2022-08-31T00:55:29.504Z,72.25
2022-08-31T00:57:58.080Z,71.44
2022-08-31T01:00:27.794Z,71.01
2022-08-31T01:02:55.635Z,69.92
2022-08-31T01:05:22.307Z,70.30
2022-08-31T01:07:50.024Z,70.54
2022-08-31T01:10:20.414Z,70.50
2022-08-31T01:12:50.791Z,71.52
2022-08-31T01:15:17.769Z,71.52
2022-08-31T01:17:48.205Z,72.09
2022-08-31T01:20:27.729Z,72.11
2022-08-31T01:22:59.394Z,72.72
2022-08-31T01:25:26.720Z,73.25
2022-08-31T01:28:04.713Z,73.20
2022-08-31T01:30:31.720Z,73.07
2022-08-31T01:32:58.584Z,72.86
2022-08-31T01:35:25.271Z,72.60
2022-08-31T01:37:52.922Z,72.03
2022-08-31T01:40:19.666Z,72.52
2022-08-31T01:42:46.533Z,72.84
2022-08-31T01:45:13.198Z,72.87
2022-08-31T01:47:40.819Z,72.54
2022-08-31T01:50:08.251Z,73.19
2022-08-31T01:52:37.732Z,73.02
2022-08-31T01:55:06.069Z,72.33
2022-08-31T01:57:34.191Z,72.14
2022-08-31T02:00:05.894Z,72.06
2022-08-31T02:02:32.558Z,72.86
2022-08-31T02:04:59.202Z,73.44
2022-08-31T02:07:26.050Z,74.66
2022-08-31T02:09:54.190Z,74.13
2022-08-31T02:12:20.752Z,75.08
2022-08-31T02:14:47.287Z,75.50
2022-08-31T02:17:13.844Z,76.76
2022-08-31T02:19:40.614Z,77.79
2022-08-31T02:22:07.549Z,77.37
2022-08-31T02:24:34.246Z,77.87
2022-08-31T02:27:00.865Z,78.31
2022-08-31T02:29:27.587Z,78.58
2022-08-31T02:31:54.124Z,78.43
2022-08-31T02:34:20.793Z,78.60
2022-08-31T02:36:47.327Z,78.82
2022-08-31T02:39:14.894Z,78.01
2022-08-31T02:41:41.974Z,77.88
2022-08-31T02:44:08.626Z,77.24
2022-08-31T02:46:35.422Z,76.65
2022-08-31T02:49:02.535Z,76.30
2022-08-31T02:51:29.422Z,76.59
2022-08-31T02:53:56.161Z,76.99
2022-08-31T02:56:23.905Z,77.15
2022-08-31T02:58:55.258Z,78.02
2022-08-31T03:01:26.478Z,78.98
2022-08-31T03:03:53.227Z,79.24
2022-08-31T03:06:20.293Z,78.89
2022-08-31T03:08:47.582Z,79.60
2022-08-31T03:11:14.303Z,79.00
2022-08-31T03:13:41.725Z,79.03
2022-08-31T03:16:09.276Z,78.17
2022-08-31T03:18:35.906Z,77.70
2022-08-31T03:21:02.560Z,77.51
2022-08-31T03:23:29.507Z,77.36
2022-08-31T03:25:56.082Z,78.94
2022-08-31T03:28:22.688Z,79.82
2022-08-31T03:30:49.623Z,81.07
2022-08-31T03:33:16.563Z,81.64
2022-08-31T03:35:44.820Z,81.40
2022-08-31T03:38:13.004Z,79.87
2022-08-31T03:40:44.075Z,79.82
2022-08-31T03:43:11.827Z,80.59
2022-08-31T03:45:40.543Z,82.82
2022-08-31T03:48:12.240Z,83.16
2022-08-31T03:50:40.640Z,84.28
2022-08-31T03:53:08.492Z,84.66
2022-08-31T03:55:38.345Z,84.24
2022-08-31T03:58:06.003Z,84.81
2022-08-31T04:00:34.034Z,84.67
2022-08-31T04:03:01.633Z,84.26
2022-08-31T04:05:33.988Z,84.58
2022-08-31T04:08:00.574Z,84.90
2022-08-31T04:10:27.081Z,84.41
2022-08-31T04:12:53.695Z,84.19
2022-08-31T04:15:22.228Z,84.74
2022-08-31T04:17:49.058Z,85.22
2022-08-31T04:20:18.727Z,85.48
2022-08-31T04:22:53.125Z,84.96
2022-08-31T04:25:21.572Z,85.18
2022-08-31T04:27:50.391Z,84.96
2022-08-31T04:30:17.994Z,84.19
2022-08-31T04:32:44.530Z,85.18
2022-08-31T04:35:11.119Z,85.48
2022-08-31T04:37:37.645Z,86.11
2022-08-31T04:40:18.122Z,86.59
2022-08-31T04:42:47.333Z,86.65
2022-08-31T04:45:15.264Z,86.20
2022-08-31T04:47:42.950Z,86.33
2022-08-31T04:50:11.288Z,86.16
2022-08-31T04:52:37.985Z,86.53
2022-08-31T04:55:05.525Z,85.90
2022-08-31T04:57:35.556Z,86.11
2022-08-31T05:00:04.966Z,85.52
2022-08-31T05:02:32.969Z,86.59
2022-08-31T05:05:00.501Z,86.68
2022-08-31T05:07:27.122Z,85.17
2022-08-31T05:09:54.090Z,85.36
2022-08-31T05:12:20.676Z,84.39
2022-08-31T05:14:47.901Z,84.82
2022-08-31T05:17:15.999Z,84.40
2022-08-31T05:19:43.901Z,84.97
2022-08-31T05:22:11.374Z,85.15
2022-08-31T05:24:38.987Z,85.52
2022-08-31T05:27:05.930Z,85.37
2022-08-31T05:29:32.546Z,85.12
2022-08-31T05:31:59.090Z,85.17
2022-08-31T05:34:26.885Z,85.16
2022-08-31T05:36:55.207Z,85.04
2022-08-31T05:39:22.110Z,85.36
2022-08-31T05:41:48.750Z,85.41
2022-08-31T05:44:16.926Z,85.33
2022-08-31T05:46:43.725Z,84.65
2022-08-31T05:49:11.652Z,84.90
2022-08-31T05:51:39.139Z,84.81
2022-08-31T05:54:07.568Z,84.43
2022-08-31T05:56:34.913Z,84.57
2022-08-31T05:59:01.849Z,84.68
2022-08-31T06:01:35.069Z,84.43
2022-08-31T06:04:02.469Z,84.12
2022-08-31T06:06:29.686Z,83.58
2022-08-31T06:08:57.986Z,83.97
2022-08-31T06:11:28.402Z,83.87
2022-08-31T06:13:58.143Z,83.63
2022-08-31T06:16:26.323Z,83.56
2022-08-31T06:18:55.680Z,83.54
2022-08-31T06:21:29.048Z,83.21
2022-08-31T06:23:58.041Z,83.33
2022-08-31T06:26:27.069Z,83.12
2022-08-31T06:28:57.113Z,83.05
2022-08-31T06:31:37.434Z,82.21
2022-08-31T06:34:07.089Z,82.32
2022-08-31T06:36:34.280Z,82.52
2022-08-31T06:39:02.383Z,82.24
2022-08-31T06:41:35.806Z,81.55
2022-08-31T06:44:07.898Z,81.55
2022-08-31T06:46:37.209Z,81.71
2022-08-31T06:49:04.999Z,81.34
2022-08-31T06:51:37.940Z,81.18
2022-08-31T06:54:27.516Z,80.78
2022-08-31T06:56:53.943Z,81.48
2022-08-31T06:59:20.544Z,81.36
2022-08-31T07:01:47.271Z,81.30
2022-08-31T07:04:14.242Z,81.31
2022-08-31T07:06:43.175Z,80.90
2022-08-31T07:09:12.941Z,80.66
2022-08-31T07:11:45.297Z,80.43
2022-08-31T07:14:14.790Z,80.42
2022-08-31T07:16:42.215Z,80.44
2022-08-31T07:19:09.720Z,80.71
2022-08-31T07:21:47.347Z,80.34
2022-08-31T07:24:18.036Z,80.00
2022-08-31T07:26:49.956Z,80.09
2022-08-31T07:29:18.622Z,80.13
2022-08-31T07:31:48.848Z,79.72
2022-08-31T07:34:19.280Z,79.60
2022-08-31T07:37:05.936Z,78.94
2022-08-31T07:39:52.170Z,78.59
2022-08-31T07:42:28.769Z,78.65
2022-08-31T07:44:57.498Z,78.35
2022-08-31T07:47:28.441Z,78.13
2022-08-31T07:49:56.846Z,78.28
2022-08-31T07:52:30.801Z,78.12
2022-08-31T07:55:07.894Z,77.95
2022-08-31T07:57:40.565Z,77.48
2022-08-31T08:00:10.485Z,77.70
2022-08-31T08:02:39.047Z,78.12
2022-08-31T08:05:11.945Z,78.11
2022-08-31T08:07:40.528Z,77.37
2022-08-31T08:10:14.139Z,77.31
2022-08-31T08:12:47.267Z,77.02
2022-08-31T08:15:15.442Z,76.83
2022-08-31T08:17:42.342Z,76.60
2022-08-31T08:20:13.476Z,76.63
2022-08-31T08:22:53.996Z,75.94
2022-08-31T08:25:26.059Z,75.88
2022-08-31T08:27:54.518Z,75.53
2022-08-31T08:30:22.660Z,74.43
2022-08-31T08:32:49.334Z,74.67
2022-08-31T08:35:16.690Z,73.90
2022-08-31T08:37:58.344Z,73.59
2022-08-31T08:40:42.644Z,72.89
2022-08-31T08:43:16.209Z,72.39
2022-08-31T08:45:45.851Z,72.19
2022-08-31T08:48:17.253Z,72.01
2022-08-31T08:50:44.280Z,71.92
2022-08-31T08:53:15.279Z,71.28
2022-08-31T08:55:42.362Z,71.64
2022-08-31T08:58:10.582Z,71.14
2022-08-31T09:00:46.446Z,71.36
2022-08-31T09:03:54.631Z,70.18
2022-08-31T09:06:32.191Z,70.16
2022-08-31T09:09:32.736Z,69.98
2022-08-31T09:12:24.042Z,69.19
2022-08-31T09:15:16.347Z,69.31
2022-08-31T09:18:05.231Z,69.46
2022-08-31T09:20:33.899Z,68.93
2022-08-31T09:23:02.248Z,67.90
2022-08-31T09:25:34.728Z,68.79
2022-08-31T09:28:15.101Z,67.60
2022-08-31T09:30:44.696Z,67.69
2022-08-31T09:33:23.988Z,67.48
2022-08-31T09:35:58.568Z,67.06
2022-08-31T09:38:39.527Z,67.65
2022-08-31T09:41:30.956Z,67.25
2022-08-31T09:44:22.274Z,67.02
2022-08-31T09:46:51.457Z,66.70
2022-08-31T09:49:26.924Z,66.24
2022-08-31T09:52:13.454Z,66.26
2022-08-31T09:54:58.694Z,65.65
2022-08-31T09:58:11.220Z,65.04
2022-08-31T10:00:44.855Z,65.10
2022-08-31T10:03:20.776Z,65.25
2022-08-31T10:05:51.760Z,65.80
2022-08-31T10:08:57.957Z,66.33
2022-08-31T10:11:29.407Z,66.55
2022-08-31T10:14:22.931Z,66.68
2022-08-31T10:17:00.438Z,67.17
2022-08-31T10:19:56.633Z,67.42
2022-08-31T10:22:31.469Z,67.51
2022-08-31T10:25:11.997Z,67.96
2022-08-31T10:27:44.935Z,68.06
2022-08-31T10:30:22.986Z,68.61
2022-08-31T10:33:07.801Z,68.74
2022-08-31T10:35:43.925Z,68.52
2022-08-31T10:38:24.176Z,68.37
2022-08-31T10:40:52.789Z,68.59
2022-08-31T10:43:29.186Z,68.62
2022-08-31T10:45:59.776Z,69.30
2022-08-31T10:48:27.465Z,69.79
2022-08-31T10:51:20.388Z,69.92
2022-08-31T10:53:52.228Z,70.33
2022-08-31T10:56:41.659Z,70.43
2022-08-31T10:59:24.683Z,70.18
2022-08-31T11:02:12.811Z,70.31
2022-08-31T11:05:06.610Z,69.52
2022-08-31T11:07:55.398Z,69.86
2022-08-31T11:10:37.372Z,70.23
2022-08-31T11:13:14.562Z,70.02
2022-08-31T11:15:59.770Z,70.20
2022-08-31T11:18:26.294Z,69.65
2022-08-31T11:21:11.066Z,69.50
2022-08-31T11:24:00.363Z,69.49
2022-08-31T11:27:01.192Z,69.31
2022-08-31T11:29:43.901Z,68.49
2022-08-31T11:32:17.812Z,68.48
2022-08-31T11:34:53.466Z,68.27
2022-08-31T11:37:50.850Z,67.77
2022-08-31T11:40:41.705Z,66.14
2022-08-31T11:43:31.520Z,66.33
2022-08-31T11:46:24.035Z,65.73
2022-08-31T11:48:56.107Z,66.22
2022-08-31T11:51:40.668Z,66.11
2022-08-31T11:54:13.702Z,65.00
2022-08-31T11:56:44.266Z,65.02
2022-08-31T11:59:34.006Z,63.80
2022-08-31T12:02:19.543Z,62.54
2022-08-31T12:04:47.434Z,62.26
2022-08-31T12:07:24.775Z,61.96
2022-08-31T12:10:15.882Z,61.81
2022-08-31T12:12:51.458Z,61.32
2022-08-31T12:15:39.613Z,60.86
2022-08-31T12:18:08.822Z,61.01
2022-08-31T12:21:24.888Z,59.96
2022-08-31T12:24:06.451Z,59.98
2022-08-31T12:26:58.289Z,59.85
2022-08-31T12:29:26.961Z,59.83
2022-08-31T12:32:12.203Z,59.78
2022-08-31T12:34:49.580Z,58.15
2022-08-31T12:37:36.290Z,57.82
2022-08-31T12:40:06.143Z,56.38
2022-08-31T12:42:36.687Z,56.84
2022-08-31T12:45:04.925Z,56.71
2022-08-31T12:47:43.485Z,56.00
2022-08-31T12:50:17.851Z,55.24
2022-08-31T12:52:55.573Z,55.10
2022-08-31T12:55:31.130Z,53.61
2022-08-31T12:58:21.530Z,53.86
2022-08-31T13:00:48.432Z,52.73
2022-08-31T13:03:22.758Z,52.02
2022-08-31T13:06:08.370Z,52.43
2022-08-31T13:08:47.476Z,51.84
2022-08-31T13:11:34.949Z,50.64
2022-08-31T13:14:20.925Z,51.07
2022-08-31T13:16:50.725Z,50.42
2022-08-31T13:19:30.240Z,50.86
2022-08-31T13:22:09.543Z,50.81
2022-08-31T13:24:37.785Z,50.71
2022-08-31T13:27:05.816Z,50.41
2022-08-31T13:29:41.097Z,49.35
2022-08-31T13:32:09.113Z,47.94
2022-08-31T13:34:39.377Z,47.63
2022-08-31T13:37:12.887Z,47.20
2022-08-31T13:39:46.083Z,46.91
2022-08-31T13:42:22.432Z,46.24
2022-08-31T13:44:56.338Z,45.58
2022-08-31T13:47:30.236Z,46.66
2022-08-31T13:50:13.199Z,44.51
2022-08-31T13:53:04.197Z,44.77
2022-08-31T13:55:43.304Z,43.28
2022-08-31T13:58:31.033Z,44.68
2022-08-31T14:01:19.430Z,42.74
2022-08-31T14:03:59.258Z,42.64
2022-08-31T14:06:29.897Z,43.46
2022-08-31T14:09:07.733Z,42.22
2022-08-31T14:11:35.657Z,41.39
2022-08-31T14:14:08.370Z,41.39
2022-08-31T14:16:38.970Z,41.80
2022-08-31T14:19:11.040Z,42.29
2022-08-31T14:21:43.503Z,42.67
2022-08-31T14:24:12.351Z,42.60
2022-08-31T14:26:44.103Z,42.37
2022-08-31T14:29:16.254Z,42.64
2022-08-31T14:31:49.102Z,42.99
2022-08-31T14:34:22.225Z,42.56
2022-08-31T14:37:10.890Z,43.53
2022-08-31T14:39:47.958Z,43.30
2022-08-31T14:42:28.972Z,43.08
2022-08-31T14:45:03.212Z,43.10
2022-08-31T14:47:36.146Z,43.38
2022-08-31T14:50:07.125Z,42.95
2022-08-31T14:52:39.033Z,43.29
2022-08-31T14:55:11.148Z,43.09
2022-08-31T14:57:45.704Z,42.98
2022-08-31T15:00:22.986Z,43.06
2022-08-31T15:02:53.554Z,41.95
2022-08-31T15:05:23.355Z,41.41
2022-08-31T15:07:52.966Z,41.92
2022-08-31T15:10:21.740Z,41.70
2022-08-31T15:12:48.850Z,42.71
2022-08-31T15:15:20.407Z,41.54
2022-08-31T15:17:51.709Z,42.37
2022-08-31T15:20:20.082Z,41.96
2022-08-31T15:22:48.265Z,41.56
2022-08-31T15:25:16.213Z,42.26
2022-08-31T15:27:46.589Z,42.54
2022-08-31T15:30:19.012Z,42.46
2022-08-31T15:32:48.076Z,43.01
2022-08-31T15:35:23.478Z,42.76
2022-08-31T15:37:58.841Z,42.80
2022-08-31T15:40:29.047Z,43.22
2022-08-31T15:42:56.273Z,43.46
2022-08-31T15:45:23.585Z,43.53
2022-08-31T15:48:08.647Z,43.90
2022-08-31T15:50:36.002Z,44.26
2022-08-31T15:53:09.553Z,43.99
2022-08-31T15:55:40.592Z,43.99
2022-08-31T15:58:09.313Z,44.45
2022-08-31T16:00:36.707Z,44.26
2022-08-31T16:03:03.764Z,44.25
2022-08-31T16:05:35.763Z,43.39
2022-08-31T16:08:03.188Z,43.97
2022-08-31T16:10:31.082Z,43.60
2022-08-31T16:12:58.183Z,42.15
2022-08-31T16:15:25.447Z,42.25
2022-08-31T16:17:57.656Z,42.25
2022-08-31T16:20:27.317Z,42.31
2022-08-31T16:22:54.047Z,42.56
2022-08-31T16:25:20.723Z,42.46
2022-08-31T16:27:47.360Z,42.72
2022-08-31T16:30:14.543Z,42.56
2022-08-31T16:32:41.120Z,42.93
2022-08-31T16:35:08.258Z,42.26
2022-08-31T16:37:34.904Z,42.28
2022-08-31T16:40:01.566Z,42.17
2022-08-31T16:42:28.383Z,41.90
2022-08-31T16:44:59.719Z,41.88
2022-08-31T16:47:29.088Z,41.74
2022-08-31T16:49:55.799Z,41.85
2022-08-31T16:52:26.777Z,41.84
2022-08-31T16:54:56.920Z,41.68
2022-08-31T16:57:27.272Z,41.79
2022-08-31T16:59:56.440Z,41.90
2022-08-31T17:02:24.267Z,41.93
2022-08-31T17:04:53.464Z,42.25
2022-08-31T17:07:23.440Z,42.71
2022-08-31T17:09:49.918Z,42.71
2022-08-31T17:12:21.510Z,42.42
2022-08-31T17:14:52.550Z,42.91
2022-08-31T17:17:22.523Z,42.77
2022-08-31T17:19:49.755Z,43.29
2022-08-31T17:22:25.613Z,43.13
2022-08-31T17:24:57.711Z,42.95
2022-08-31T17:27:26.239Z,43.41
2022-08-31T17:29:56.198Z,43.68
2022-08-31T17:32:25.855Z,43.74
2022-08-31T17:34:54.512Z,44.12
2022-08-31T17:37:28.357Z,43.98
2022-08-31T17:39:55.891Z,44.43
2022-08-31T17:42:26.791Z,44.42
2022-08-31T17:44:55.272Z,44.66
2022-08-31T17:47:24.266Z,45.04
2022-08-31T17:49:51.609Z,45.59
2022-08-31T17:52:20.604Z,45.64
2022-08-31T17:54:48.526Z,46.22
2022-08-31T17:57:16.504Z,46.55
2022-08-31T17:59:46.561Z,46.49
2022-08-31T18:02:20.053Z,46.84
2022-08-31T18:04:46.670Z,47.03
2022-08-31T18:07:13.486Z,47.07
2022-08-31T18:09:44.193Z,47.61
2022-08-31T18:12:11.282Z,47.85
2022-08-31T18:14:38.880Z,48.09
2022-08-31T18:17:08.646Z,48.45
2022-08-31T18:19:35.329Z,48.29
2022-08-31T18:22:02.478Z,48.52
2022-08-31T18:24:31.376Z,48.87
2022-08-31T18:26:58.852Z,49.26
2022-08-31T18:29:26.708Z,49.79
2022-08-31T18:31:54.271Z,49.98
2022-08-31T18:34:23.047Z,49.97
2022-08-31T18:36:51.691Z,50.14
2022-08-31T18:39:40.748Z,50.29
2022-08-31T18:42:27.323Z,50.75
2022-08-31T18:45:12.662Z,50.64
2022-08-31T18:47:39.249Z,51.15
2022-08-31T18:50:06.203Z,51.35
2022-08-31T18:52:32.790Z,51.60
2022-08-31T18:54:59.869Z,51.83
2022-08-31T18:57:27.676Z,52.19
2022-08-31T18:59:55.201Z,52.36
2022-08-31T19:02:23.130Z,52.41
2022-08-31T19:04:51.118Z,52.64
2022-08-31T19:07:19.140Z,52.90
2022-08-31T19:09:46.087Z,53.29
2022-08-31T19:12:18.335Z,53.52
2022-08-31T19:14:51.068Z,53.50
2022-08-31T19:17:21.696Z,53.91
2022-08-31T19:19:49.352Z,54.10
2022-08-31T19:22:18.421Z,54.15
2022-08-31T19:24:45.122Z,54.55
2022-08-31T19:27:13.965Z,54.58
2022-08-31T19:29:41.730Z,54.77
2022-08-31T19:32:10.175Z,55.02
2022-08-31T19:34:40.416Z,55.21
2022-08-31T19:37:07.958Z,55.14
2022-08-31T19:39:37.424Z,55.60
2022-08-31T19:42:07.836Z,55.53
2022-08-31T19:47:25.633Z,55.78
2022-08-31T19:49:52.935Z,55.86
2022-08-31T19:52:20.160Z,56.08
2022-08-31T19:54:48.478Z,56.21
2022-08-31T19:57:16.765Z,56.38
2022-08-31T19:59:43.434Z,56.29
2022-08-31T20:02:10.207Z,56.56
2022-08-31T20:04:36.872Z,56.52
2022-08-31T20:07:06.415Z,56.44
2022-08-31T20:09:34.322Z,56.56
2022-08-31T20:12:02.022Z,57.11
2022-08-31T20:14:28.969Z,57.28
2022-08-31T20:16:55.516Z,56.92
2022-08-31T20:19:24.900Z,57.02
2022-08-31T20:21:54.195Z,57.45
2022-08-31T20:24:26.718Z,57.78
2022-08-31T20:26:55.527Z,57.84
2022-08-31T20:29:23.769Z,58.38
2022-08-31T20:34:20.123Z,58.82
2022-08-31T20:36:50.048Z,58.98
2022-08-31T20:39:18.445Z,59.08
2022-08-31T20:41:48.323Z,59.13
2022-08-31T20:44:21.417Z,59.22
2022-08-31T20:47:12.514Z,59.47
2022-08-31T20:49:42.234Z,59.71
2022-08-31T20:52:11.649Z,59.92
2022-08-31T20:54:38.136Z,59.98
2022-08-31T20:57:09.097Z,60.31
2022-08-31T20:59:36.265Z,60.09
2022-08-31T21:02:06.112Z,60.10
2022-08-31T21:04:37.328Z,60.14
2022-08-31T21:07:05.890Z,60.23
2022-08-31T21:09:32.689Z,60.21
2022-08-31T21:11:59.988Z,60.33
2022-08-31T21:14:28.237Z,60.46
2022-08-31T21:16:55.987Z,60.68
2022-08-31T21:19:23.828Z,60.70
2022-08-31T21:21:52.321Z,60.85
2022-08-31T21:24:20.466Z,60.69
2022-08-31T21:26:47.871Z,60.43
2022-08-31T21:29:17.939Z,60.23
2022-08-31T21:31:58.270Z,59.86
2022-08-31T21:34:29.403Z,59.17
2022-08-31T21:36:55.956Z,59.09
2022-08-31T21:39:23.154Z,59.02
2022-08-31T21:41:50.510Z,58.40
2022-08-31T21:44:20.855Z,58.50
2022-08-31T21:46:50.742Z,58.25
2022-08-31T21:49:18.715Z,57.93
2022-08-31T21:51:52.203Z,59.80
2022-08-31T21:54:21.723Z,60.66
2022-08-31T21:56:53.445Z,60.91
2022-08-31T21:59:22.747Z,60.58
2022-08-31T22:01:55.496Z,61.11
2022-08-31T22:04:23.591Z,61.33
2022-08-31T22:06:50.122Z,61.45
2022-08-31T22:09:19.159Z,61.82
2022-08-31T22:11:50.698Z,61.85
2022-08-31T22:14:20.026Z,62.28
2022-08-31T22:16:48.492Z,62.43
2022-08-31T22:19:20.899Z,62.87
2022-08-31T22:21:51.129Z,62.87
2022-08-31T22:24:27.806Z,62.96
2022-08-31T22:26:56.643Z,63.08
2022-08-31T22:29:26.152Z,63.09
2022-08-31T22:31:54.207Z,63.41
2022-08-31T22:34:21.466Z,63.50
2022-08-31T22:36:50.832Z,64.31
2022-08-31T22:39:19.848Z,64.66
2022-08-31T22:41:47.316Z,64.14
2022-08-31T22:44:18.062Z,64.11
2022-08-31T22:46:45.346Z,64.79
2022-08-31T22:54:23.761Z,65.29
2022-08-31T22:56:51.009Z,65.23
2022-08-31T22:59:27.103Z,65.37
2022-08-31T23:01:57.375Z,66.17
2022-08-31T23:04:26.375Z,66.30
2022-08-31T23:06:55.370Z,66.63
2022-08-31T23:09:27.130Z,66.58
2022-08-31T23:11:55.506Z,67.05
2022-08-31T23:14:22.737Z,66.31
2022-08-31T23:16:55.207Z,67.93
2022-08-31T23:19:26.278Z,68.17
2022-08-31T23:21:56.952Z,67.88
2022-08-31T23:24:35.412Z,68.10
2022-08-31T23:27:05.077Z,68.20
2022-08-31T23:29:42.513Z,68.63
2022-08-31T23:32:13.183Z,68.71
2022-08-31T23:34:41.966Z,69.14
2022-08-31T23:37:10.272Z,69.12
2022-08-31T23:39:39.548Z,69.35
2022-08-31T23:42:07.414Z,69.38
2022-08-31T23:44:36.186Z,69.41
2022-08-31T23:47:02.965Z,69.29
2022-08-31T23:49:29.696Z,70.29
2022-08-31T23:51:56.231Z,69.88
2022-08-31T23:54:23.313Z,69.97
2022-08-31T23:56:52.257Z,69.93
2022-08-31T23:59:19.863Z,70.10
